CTN648 LDSP-LDDU
Flight info
| Callsign | CTN648 |
|---|---|
| Flight time | 0h 33m |
| Altitude | 25000 |
| Route | SIPAL |
| Aircraft | A319/M-SDE3FGHIRWY/LB1 |
Departure
| Time | 2026-04-28 22:08 |
|---|---|
| Airport | Split Saint Jerome Airport (LDSP) |
Arrival
| Time | 2026-04-28 22:41 |
|---|---|
| Airport | Dubrovnik Ruđer Bošković Airport (LDDU) |
| Time | Latitude | Longitude | Altitude | Speed | Heading |
|---|---|---|---|---|---|
| 2026-04-28 21:43 | 43.53609 | 16.29642 | 74 ft | 0 kts | 146° |
| 2026-04-28 22:01 | 43.53608 | 16.29643 | 74 ft | 1 kts | 146° |
| 2026-04-28 22:02 | 43.53595 | 16.29650 | 65 ft | 3 kts | 169° |
| 2026-04-28 22:02 | 43.53582 | 16.29626 | 74 ft | 3 kts | 265° |
| 2026-04-28 22:02 | 43.53598 | 16.29605 | 71 ft | 3 kts | 327° |
| 2026-04-28 22:02 | 43.53609 | 16.29595 | 71 ft | 1 kts | 327° |
| 2026-04-28 22:03 | 43.53610 | 16.29595 | 71 ft | 0 kts | 327° |
| 2026-04-28 22:03 | 43.53613 | 16.29592 | 74 ft | 1 kts | 327° |
| 2026-04-28 22:03 | 43.53619 | 16.29586 | 72 ft | 2 kts | 327° |
| 2026-04-28 22:03 | 43.53627 | 16.29579 | 72 ft | 1 kts | 327° |
| 2026-04-28 22:04 | 43.53651 | 16.29574 | 72 ft | 6 kts | 3° |
| 2026-04-28 22:04 | 43.53686 | 16.29562 | 74 ft | 5 kts | 312° |
| 2026-04-28 22:04 | 43.53695 | 16.29506 | 75 ft | 7 kts | 261° |
| 2026-04-28 22:04 | 43.53673 | 16.29420 | 72 ft | 12 kts | 250° |
| 2026-04-28 22:05 | 43.53629 | 16.29325 | 71 ft | 12 kts | 231° |
| 2026-04-28 22:05 | 43.53568 | 16.29225 | 73 ft | 15 kts | 230° |
| 2026-04-28 22:05 | 43.53505 | 16.29103 | 67 ft | 16 kts | 236° |
| 2026-04-28 22:05 | 43.53444 | 16.28980 | 70 ft | 16 kts | 232° |
| 2026-04-28 22:06 | 43.53370 | 16.28864 | 69 ft | 16 kts | 229° |
| 2026-04-28 22:06 | 43.53310 | 16.28754 | 83 ft | 14 kts | 234° |
| 2026-04-28 22:06 | 43.53255 | 16.28650 | 80 ft | 14 kts | 231° |
| 2026-04-28 22:06 | 43.53215 | 16.28598 | 86 ft | 6 kts | 336° |
| 2026-04-28 22:07 | 43.53255 | 16.28656 | 80 ft | 17 kts | 53° |
| 2026-04-28 22:07 | 43.53495 | 16.29087 | 74 ft | 97 kts | 52° |
| 2026-04-28 22:07 | 43.54046 | 16.30063 | 80 ft | 158 kts | 51° |
| 2026-04-28 22:07 | 43.54745 | 16.31297 | 678 ft | 162 kts | 51° |
| 2026-04-28 22:08 | 43.55420 | 16.32544 | 1422 ft | 163 kts | 57° |
| 2026-04-28 22:08 | 43.55713 | 16.34084 | 1928 ft | 179 kts | 92° |
| 2026-04-28 22:08 | 43.55268 | 16.35757 | 2383 ft | 196 kts | 127° |
| 2026-04-28 22:08 | 43.54170 | 16.36798 | 3046 ft | 199 kts | 164° |
| 2026-04-28 22:09 | 43.52805 | 16.36991 | 3790 ft | 197 kts | 178° |
| 2026-04-28 22:09 | 43.51493 | 16.37569 | 4444 ft | 201 kts | 153° |
| 2026-04-28 22:09 | 43.50262 | 16.38490 | 5151 ft | 202 kts | 152° |
| 2026-04-28 22:09 | 43.49017 | 16.39442 | 5496 ft | 207 kts | 152° |
| 2026-04-28 22:10 | 43.47759 | 16.40397 | 5507 ft | 205 kts | 153° |
| 2026-04-28 22:10 | 43.46408 | 16.40885 | 5507 ft | 203 kts | 184° |
| 2026-04-28 22:10 | 43.45102 | 16.40210 | 5626 ft | 208 kts | 221° |
| 2026-04-28 22:10 | 43.44179 | 16.38703 | 6363 ft | 203 kts | 234° |
| 2026-04-28 22:11 | 43.43339 | 16.37186 | 7074 ft | 201 kts | 235° |
| 2026-04-28 22:11 | 43.42807 | 16.35408 | 7446 ft | 205 kts | 265° |
| 2026-04-28 22:11 | 43.43065 | 16.33530 | 7508 ft | 203 kts | 297° |
| 2026-04-28 22:11 | 43.44092 | 16.32079 | 7669 ft | 227 kts | 330° |
| 2026-04-28 22:12 | 43.45648 | 16.31507 | 8242 ft | 237 kts | 349° |
| 2026-04-28 22:12 | 43.47285 | 16.31153 | 9143 ft | 239 kts | 354° |
| 2026-04-28 22:12 | 43.48951 | 16.31419 | 9998 ft | 246 kts | 16° |
| 2026-04-28 22:12 | 43.50485 | 16.32571 | 10546 ft | 265 kts | 40° |
| 2026-04-28 22:13 | 43.51682 | 16.34653 | 10899 ft | 291 kts | 57° |
| 2026-04-28 22:13 | 43.52795 | 16.37075 | 11228 ft | 315 kts | 57° |
| 2026-04-28 22:13 | 43.54012 | 16.39729 | 11520 ft | 339 kts | 57° |
| 2026-04-28 22:13 | 43.55209 | 16.42631 | 11953 ft | 356 kts | 68° |
| 2026-04-28 22:14 | 43.55669 | 16.46013 | 12662 ft | 365 kts | 91° |
| 2026-04-28 22:14 | 43.55129 | 16.49434 | 13428 ft | 370 kts | 115° |
| 2026-04-28 22:14 | 43.53650 | 16.52326 | 14154 ft | 373 kts | 135° |
| 2026-04-28 22:14 | 43.51828 | 16.54887 | 14838 ft | 377 kts | 136° |
| 2026-04-28 22:15 | 43.49965 | 16.57455 | 15494 ft | 381 kts | 136° |
| 2026-04-28 22:15 | 43.48067 | 16.60051 | 16131 ft | 386 kts | 136° |
| 2026-04-28 22:15 | 43.46176 | 16.62644 | 16763 ft | 391 kts | 136° |
| 2026-04-28 22:15 | 43.44239 | 16.65313 | 17400 ft | 397 kts | 136° |
| 2026-04-28 22:16 | 43.42283 | 16.68016 | 18029 ft | 402 kts | 136° |
| 2026-04-28 22:16 | 43.40295 | 16.70764 | 18621 ft | 407 kts | 137° |
| 2026-04-28 22:16 | 43.38292 | 16.73532 | 19174 ft | 411 kts | 137° |
| 2026-04-28 22:16 | 43.36264 | 16.76333 | 19737 ft | 415 kts | 137° |
| 2026-04-28 22:17 | 43.34216 | 16.79162 | 20305 ft | 419 kts | 137° |
| 2026-04-28 22:17 | 43.32145 | 16.82019 | 20863 ft | 424 kts | 137° |
| 2026-04-28 22:17 | 43.30082 | 16.84860 | 21401 ft | 428 kts | 137° |
| 2026-04-28 22:17 | 43.27971 | 16.87763 | 21937 ft | 432 kts | 137° |
| 2026-04-28 22:18 | 43.25838 | 16.90695 | 22451 ft | 436 kts | 137° |
| 2026-04-28 22:18 | 43.23687 | 16.93646 | 22961 ft | 440 kts | 137° |
| 2026-04-28 22:18 | 43.21512 | 16.96627 | 23471 ft | 444 kts | 137° |
| 2026-04-28 22:18 | 43.19319 | 16.99628 | 23913 ft | 447 kts | 137° |
| 2026-04-28 22:19 | 43.17110 | 17.02645 | 24361 ft | 449 kts | 137° |
| 2026-04-28 22:19 | 43.14704 | 17.05365 | 24789 ft | 448 kts | 149° |
| 2026-04-28 22:19 | 43.11985 | 17.07421 | 25022 ft | 445 kts | 160° |
| 2026-04-28 22:19 | 43.09053 | 17.08733 | 25082 ft | 442 kts | 171° |
| 2026-04-28 22:20 | 43.06082 | 17.09576 | 25090 ft | 443 kts | 172° |
| 2026-04-28 22:20 | 43.03066 | 17.10424 | 25085 ft | 443 kts | 172° |
| 2026-04-28 22:20 | 43.00045 | 17.11279 | 25086 ft | 443 kts | 172° |
| 2026-04-28 22:20 | 42.97029 | 17.12141 | 25087 ft | 443 kts | 172° |
| 2026-04-28 22:21 | 42.94016 | 17.13011 | 25086 ft | 443 kts | 172° |
| 2026-04-28 22:21 | 42.91003 | 17.13885 | 25087 ft | 443 kts | 172° |
| 2026-04-28 22:21 | 42.87993 | 17.14761 | 25087 ft | 443 kts | 171° |
| 2026-04-28 22:21 | 42.84978 | 17.15633 | 25086 ft | 443 kts | 171° |
| 2026-04-28 22:22 | 42.82008 | 17.16486 | 25084 ft | 443 kts | 171° |
| 2026-04-28 22:22 | 42.78989 | 17.17354 | 25084 ft | 443 kts | 171° |
| 2026-04-28 22:22 | 42.76042 | 17.18604 | 25088 ft | 447 kts | 160° |
| 2026-04-28 22:22 | 42.73300 | 17.20620 | 25018 ft | 450 kts | 148° |
| 2026-04-28 22:23 | 42.70853 | 17.23303 | 24049 ft | 458 kts | 136° |
| 2026-04-28 22:23 | 42.68865 | 17.26729 | 23019 ft | 465 kts | 122° |
| 2026-04-28 22:23 | 42.67358 | 17.30615 | 22192 ft | 463 kts | 117° |
| 2026-04-28 22:23 | 42.65910 | 17.34492 | 21504 ft | 458 kts | 117° |
| 2026-04-28 22:24 | 42.64447 | 17.38305 | 20917 ft | 451 kts | 118° |
| 2026-04-28 22:24 | 42.63012 | 17.41975 | 20441 ft | 443 kts | 118° |
| 2026-04-28 22:24 | 42.61572 | 17.45638 | 19891 ft | 437 kts | 118° |
| 2026-04-28 22:24 | 42.60147 | 17.49259 | 19365 ft | 432 kts | 118° |
| 2026-04-28 22:25 | 42.58740 | 17.52843 | 18824 ft | 429 kts | 118° |
| 2026-04-28 22:25 | 42.57344 | 17.56414 | 18278 ft | 427 kts | 118° |
| 2026-04-28 22:25 | 42.55963 | 17.59963 | 17717 ft | 424 kts | 118° |
| 2026-04-28 22:25 | 42.54597 | 17.63479 | 17202 ft | 419 kts | 118° |
| 2026-04-28 22:26 | 42.53256 | 17.66930 | 16990 ft | 407 kts | 118° |
| 2026-04-28 22:26 | 42.51962 | 17.70249 | 16845 ft | 388 kts | 118° |
| 2026-04-28 22:26 | 42.50730 | 17.73407 | 16724 ft | 370 kts | 118° |
| 2026-04-28 22:26 | 42.49557 | 17.76410 | 16593 ft | 353 kts | 118° |
| 2026-04-28 22:27 | 42.48446 | 17.79248 | 16466 ft | 338 kts | 118° |
| 2026-04-28 22:27 | 42.47746 | 17.82192 | 16340 ft | 323 kts | 94° |
| 2026-04-28 22:27 | 42.48008 | 17.85123 | 16093 ft | 311 kts | 67° |
| 2026-04-28 22:27 | 42.49148 | 17.87555 | 15607 ft | 305 kts | 39° |
| 2026-04-28 22:28 | 42.50880 | 17.89132 | 15152 ft | 300 kts | 25° |
| 2026-04-28 22:28 | 42.52718 | 17.90420 | 14838 ft | 294 kts | 20° |
| 2026-04-28 22:28 | 42.54677 | 17.90934 | 14441 ft | 286 kts | 353° |
| 2026-04-28 22:28 | 42.56554 | 17.90225 | 14045 ft | 279 kts | 328° |
| 2026-04-28 22:29 | 42.57971 | 17.88533 | 13601 ft | 275 kts | 303° |
| 2026-04-28 22:29 | 42.58909 | 17.86287 | 13123 ft | 274 kts | 297° |
| 2026-04-28 22:29 | 42.59801 | 17.83995 | 12682 ft | 273 kts | 297° |
| 2026-04-28 22:29 | 42.60684 | 17.81726 | 12249 ft | 272 kts | 297° |
| 2026-04-28 22:30 | 42.61565 | 17.79469 | 11854 ft | 269 kts | 297° |
| 2026-04-28 22:30 | 42.62436 | 17.77238 | 11489 ft | 266 kts | 297° |
| 2026-04-28 22:30 | 42.63295 | 17.75036 | 11138 ft | 263 kts | 297° |
| 2026-04-28 22:30 | 42.64154 | 17.72835 | 10780 ft | 264 kts | 297° |
| 2026-04-28 22:31 | 42.65015 | 17.70633 | 10420 ft | 264 kts | 297° |
| 2026-04-28 22:31 | 42.65920 | 17.68502 | 10098 ft | 264 kts | 307° |
| 2026-04-28 22:31 | 42.67372 | 17.67005 | 9701 ft | 267 kts | 338° |
| 2026-04-28 22:31 | 42.69202 | 17.66732 | 9273 ft | 272 kts | 9° |
| 2026-04-28 22:32 | 42.70946 | 17.67718 | 8880 ft | 274 kts | 27° |
| 2026-04-28 22:32 | 42.72621 | 17.68929 | 8576 ft | 270 kts | 26° |
| 2026-04-28 22:32 | 42.74288 | 17.70137 | 8161 ft | 271 kts | 28° |
| 2026-04-28 22:32 | 42.75667 | 17.71838 | 7828 ft | 270 kts | 57° |
| 2026-04-28 22:33 | 42.76240 | 17.74196 | 7444 ft | 268 kts | 88° |
| 2026-04-28 22:33 | 42.75878 | 17.76645 | 7068 ft | 265 kts | 117° |
| 2026-04-28 22:33 | 42.75022 | 17.78860 | 6679 ft | 264 kts | 120° |
| 2026-04-28 22:33 | 42.74142 | 17.81052 | 6329 ft | 263 kts | 120° |
| 2026-04-28 22:34 | 42.73278 | 17.83238 | 5962 ft | 261 kts | 119° |
| 2026-04-28 22:34 | 42.72429 | 17.85412 | 5605 ft | 259 kts | 119° |
| 2026-04-28 22:34 | 42.71586 | 17.87572 | 5249 ft | 258 kts | 119° |
| 2026-04-28 22:34 | 42.70746 | 17.89721 | 4885 ft | 257 kts | 119° |
| 2026-04-28 22:35 | 42.69958 | 17.91734 | 4729 ft | 247 kts | 119° |
| 2026-04-28 22:35 | 42.69171 | 17.93744 | 4618 ft | 235 kts | 119° |
| 2026-04-28 22:35 | 42.68427 | 17.95643 | 4518 ft | 225 kts | 119° |
| 2026-04-28 22:35 | 42.67705 | 17.97484 | 4420 ft | 216 kts | 119° |
| 2026-04-28 22:36 | 42.67018 | 17.99235 | 4368 ft | 203 kts | 119° |
| 2026-04-28 22:36 | 42.66374 | 18.00876 | 4267 ft | 190 kts | 120° |
| 2026-04-28 22:36 | 42.65765 | 18.02421 | 4119 ft | 181 kts | 120° |
| 2026-04-28 22:36 | 42.65179 | 18.03915 | 3914 ft | 177 kts | 120° |
| 2026-04-28 22:37 | 42.64602 | 18.05380 | 3696 ft | 175 kts | 120° |
| 2026-04-28 22:37 | 42.64030 | 18.06834 | 3472 ft | 174 kts | 120° |
| 2026-04-28 22:37 | 42.63470 | 18.08256 | 3243 ft | 172 kts | 119° |
| 2026-04-28 22:37 | 42.62908 | 18.09684 | 3024 ft | 171 kts | 120° |
| 2026-04-28 22:38 | 42.62349 | 18.11101 | 2801 ft | 170 kts | 119° |
| 2026-04-28 22:38 | 42.61802 | 18.12496 | 2579 ft | 163 kts | 119° |
| 2026-04-28 22:38 | 42.61292 | 18.13800 | 2384 ft | 148 kts | 119° |
| 2026-04-28 22:38 | 42.60826 | 18.14984 | 2157 ft | 137 kts | 120° |
| 2026-04-28 22:39 | 42.60403 | 18.16117 | 1954 ft | 133 kts | 116° |
| 2026-04-28 22:39 | 42.60007 | 18.17248 | 1718 ft | 131 kts | 119° |
| 2026-04-28 22:39 | 42.59572 | 18.18323 | 1505 ft | 130 kts | 120° |
| 2026-04-28 22:39 | 42.59109 | 18.19370 | 1371 ft | 129 kts | 120° |
| 2026-04-28 22:40 | 42.58699 | 18.20436 | 1271 ft | 130 kts | 114° |
| 2026-04-28 22:40 | 42.58262 | 18.21503 | 1126 ft | 129 kts | 119° |
| 2026-04-28 22:40 | 42.57835 | 18.22572 | 949 ft | 128 kts | 117° |
| 2026-04-28 22:40 | 42.57416 | 18.23612 | 748 ft | 128 kts | 115° |
| 2026-04-28 22:41 | 42.56998 | 18.24672 | 617 ft | 127 kts | 118° |
| 2026-04-28 22:41 | 42.56598 | 18.25674 | 536 ft | 108 kts | 117° |
| 2026-04-28 22:41 | 42.56330 | 18.26336 | 533 ft | 41 kts | 119° |
| 2026-04-28 22:41 | 42.56226 | 18.26589 | 534 ft | 16 kts | 119° |
| 2026-04-28 22:42 | 42.56142 | 18.26615 | 534 ft | 15 kts | 223° |
| 2026-04-28 22:42 | 42.56106 | 18.26484 | 534 ft | 15 kts | 248° |
| 2026-04-28 22:42 | 42.56130 | 18.26366 | 534 ft | 7 kts | 301° |
| 2026-04-28 22:42 | 42.56110 | 18.26317 | 534 ft | 7 kts | 205° |
| 2026-04-28 22:43 | 42.56087 | 18.26301 | 534 ft | 1 kts | 208° |
| 2026-04-28 22:43 | 42.56084 | 18.26300 | 534 ft | 0 kts | 208° |